2014 Bear Stampede

Overall Finish List

May 10, 2014


Results By The Open Road Chip Timing www.theopenroadchiptiming.com

One Mile

Place Name City Bib No Age Gender Age Group Time Back Total Time Pace
1 Brett Schiele WB IA 56 13 M 1 13-15   5:54 5:54/M
2 Keegan Sotelo 174 13 M 2 13-15 0:59 6:53 6:53/M
3 Bryce Simpson WB 80 13 M 3 13-15 1:03 6:57 6:57/M
4 Laikyn Worrell WB IA 29 9 F 1 7- 9 1:20 7:14 7:14/M
5 Skylar Yeggy WB 95 11 F 1 10-12 1:48 7:42 7:42/M
6 Haley Amkenbauer 179 11 F 2 10-12 2:02 7:57 7:57/M
7 Addison Schultes 161 6 F 1 0- 6 2:05 7:59 7:59/M
8 Caleb Pedersen WB IA 98 8 M 1 7- 9 2:07 8:01 8:01/M
9 Grace Mundell West Branch IA 154 10 F 3 10-12 2:17 8:11 8:11/M
10 Nate Hills 180 7 M 2 7- 9 2:21 8:16 8:16/M
11 Anthony Sotelo Atalissa IA 178 53 M 1 16-99 2:28 8:23 8:23/M
12 Alison Gade Tipton IA 22 6 F 2 0- 6 2:32 8:26 8:26/M
13 Emmerson Thomas 176 9 F 2 7- 9 2:37 8:32 8:32/M
14 Kate Muckler WB 100 8 F 3 7- 9 2:37 8:32 8:32/M
15 Liesl Bucknell WB IA 30 9 F 4 7- 9 2:45 8:39 8:39/M
16 Reid Hansen WB 55 5 M 1 0- 6 2:54 8:48 8:48/M
17 Noah Pedersen WL IA 104 7 M 3 7- 9 2:56 8:50 8:50/M
18 Liam Lewis 152 7 M 4 7- 9 3:13 9:08 9:08/M
19 Finney Lewis 153 6 F 3 0- 6 3:36 9:30 9:30/M
20 Alyssa Pierce WB IA 101 6 F 4 0- 6 3:41 9:35 9:35/M
21 Maryam Martin WB 125 8 F 5 7- 9 3:42 9:36 9:36/M
22 Lilah Pedersen WL 105 5 F 5 0- 6 4:07 10:02 10:02/M
23 Isabel Pedersen WL IA 103 9 F 6 7- 9 4:07 10:02 10:02/M
24 Cadence Hansen 175 9 F 7 7- 9 4:16 10:11 10:11/M
25 Addison Finley WB 137 5 F 6 0- 6 4:18 10:12 10:12/M
26 Kennedy Simpson WB 79 6 F 7 0- 6 5:13 11:08 11:08/M
27 Cory Simpson WB 81 41 M 2 16-99 5:14 11:08 11:08/M
28 Halia Gade Tipton IA 21 4 F 8 0- 6 5:29 11:24 11:24/M
29 Lanie Yeggy 177 5 F 9 0- 6 5:50 11:44 11:44/M
30 Sullivyn Bucknell WB IA 31 4 F 10 0- 6 6:33 12:27 12:27/M
31 Teddy Bucknell WB IA 28 2 M 2 0- 6 7:06 13:01 13:01/M
 

Five Kilometer

Place Name City Bib No Age Gender Age Group Time Back Total Time Pace
1 Louis Pelsang IC IA 41 39 M 1 30-39   19:29 6:17/M
2 James Pelsang IC IA 40 49 M 1 40-49 0:31 20:01 6:27/M
3 Tom Novak IC IA 107 55 M 1 50-59 1:19 20:49 6:43/M
4 Alex Heckman Muscatine IA 102 20 M 1 20-29 1:51 21:21 6:53/M
5 Blake Flores Austin MN 128 31 M 2 30-39 2:32 22:02 7:06/M
6 Daniel Bartleson West Liberty IA 15 34 M 3 30-39 2:34 22:04 7:07/M
7 Maycee Smith West Branch IA 164 12 F 1 0-14 3:12 22:42 7:19/M
8 Keegan Sotelo Atalissa IA 63 13 M 1 0-14 4:44 24:14 7:49/M
9 Michael Sexton West Branch IA 91 29 M 2 20-29 5:05 24:35 7:56/M
10 Clare Muckler WB IA 99 12 F 2 0-14 5:15 24:45 7:59/M
11 Trent Hansen WB IA 53 33 M 4 30-39 5:45 25:15 8:09/M
12 Will Martin WB IA 39 13 M 2 0-14 6:08 25:38 8:16/M
13 Bruce Martin WB IA 37 57 M 2 50-59 6:44 26:14 8:28/M
14 Ben Martin WB IA 38 16 M 1 15-19 6:44 26:14 8:28/M
15 Gavin Hills WB 97 10 M 3 0-14 7:00 26:30 8:33/M
16 Brooke Bowie 169 22 F 1 20-29 7:44 27:14 8:47/M
17 Sarah Younker IC IA 32 23 F 2 20-29 8:16 27:46 8:57/M
18 Katie Pierce Chaska MN 130 21 F 3 20-29 8:19 27:49 8:58/M
19 Jacob Swisher West Branch IA 70 8 M 4 0-14 8:30 27:59 9:02/M
20 Olivia Schultes WB IA 48 11 F 3 0-14 8:30 28:00 9:02/M
21 Ian Theis 173 35 M 5 30-39 8:32 28:02 9:03/M
22 Britney Ford Tipton IA 90 12 F 4 0-14 8:41 28:11 9:05/M
23 Erica Hohensee 172 31 F 1 30-39 8:49 28:19 9:08/M
24 Kamryn Chapman Tipton IA 132 12 F 5 0-14 8:52 28:22 9:09/M
25 Joe Hamann Atalissa IA 168 7 M 5 0-14 9:06 28:36 9:14/M
26 Kyle Hamann Atalissa IA 67 37 M 6 30-39 9:07 28:37 9:14/M
27 Karin Swisher West Branch IA 69 45 F 1 40-49 9:18 28:48 9:17/M
28 Lila Krall West Branch IA 6 11 F 6 0-14 9:18 28:48 9:17/M
29 Jacki Knorr North Liberty IA 5 33 F 2 30-39 10:02 29:32 9:32/M
30 Stacy Chapman Tipton IA 131 39 F 3 30-39 10:28 29:58 9:40/M
31 Bryan Oaks 140 37 M 7 30-39 10:28 29:58 9:40/M
32 Avery Schultes WB 47 8 F 7 0-14 10:36 30:06 9:43/M
33 Kari Spilman WB IA 78 29 F 4 20-29 10:36 30:06 9:43/M
34 Kristin Nalan WB IA 35 46 F 2 40-49 10:38 30:08 9:43/M
35 Brad Heithoff West Branch IA 25 39 M 8 30-39 10:51 30:21 9:47/M
36 Lizbeth Osborne WB 85 66 F 1 60-99 11:01 30:31 9:51/M
37 Abby Oaks West Branch IA 141 9 F 8 0-14 11:16 30:46 9:55/M
38 Jamie Schelker Tiffin IA 117 24 F 5 20-29 11:35 31:05 10:02/M
39 Katey Noble WB 72 7 F 9 0-14 11:51 31:21 10:07/M
40 Lauren Nalan WB IA 34 13 F 10 0-14 12:08 31:38 10:12/M
41 Logan Keeler WB IA 77 10 M 6 0-14 12:09 31:39 10:13/M
42 Brandon Keeler WB IA 76 37 M 9 30-39 12:10 31:40 10:13/M
43 Hilda Hernandez WB 87 9 F 11 0-14 12:12 31:42 10:14/M
44 Liz Hernandez WB 86 39 F 4 30-39 12:25 31:55 10:18/M
45 Olivia Poppen WB IA 49 10 F 12 0-14 12:35 32:05 10:21/M
46 Taya Young West Branch IA 158 10 F 13 0-14 12:37 32:07 10:22/M
47 Hailey Ankenbauer Coralville IA 135 11 F 14 0-14 12:41 32:11 10:23/M
48 Taylor Boelk West Branch IA 134 11 F 15 0-14 12:48 32:18 10:25/M
49 Courtney Kessler WB 136 9 F 16 0-14 12:53 32:23 10:27/M
50 Tami Streinz West Branch IA 9 45 F 3 40-49 12:59 32:29 10:29/M
51 Nick Chiavetta West Branch IA 133 13 M 7 0-14 13:00 32:30 10:29/M
52 Abbey Christoffel West Branch IA 66 27 F 6 20-29 13:33 33:03 10:40/M
53 Alison Anderson Clarence IA 115 12 F 17 0-14 13:37 33:07 10:41/M
54 Hannah Schiele WB IA 57 9 F 18 0-14 13:52 33:22 10:46/M
55 Diane Heick West Branch IA 12 47 F 4 40-49 13:55 33:25 10:47/M
56 Tonya Hermiston Tipton IA 138 43 F 5 40-49 13:58 33:28 10:48/M
57 Erin McFarland IC 74 27 F 7 20-29 14:41 34:11 11:02/M
58 Andy Henson West Branch IA 27 9 M 8 0-14 15:29 34:59 11:17/M
59 Kenza Nelson Coralville IA 13 34 F 5 30-39 15:30 35:00 11:17/M
60 Kaela Bemis Austin MN 127 31 F 6 30-39 15:31 35:01 11:18/M
61 Gerald Thurman Lone Tree IA 64 26 M 3 20-29 15:49 35:19 11:24/M
62 Mike Kusick WB 82 47 M 2 40-49 16:04 35:34 11:28/M
63 Tammy Kaufman Ames IA 112 51 F 1 50-59 16:18 35:48 11:33/M
64 Jeanna Hills WB 96 39 F 7 30-39 17:34 37:03 11:57/M
65 Joanna Sabha Iowa City IA 88 37 F 8 30-39 17:34 37:04 11:57/M
66 Ava Finley West Branch IA 150 9 F 19 0-14 18:05 37:35 12:07/M
67 Alex Poppen WB IA 51 9 F 20 0-14 18:06 37:36 12:08/M
68 Cadence Hansen WB 54 9 F 21 0-14 18:07 37:37 12:08/M
69 Angie Miller WB IA 75 35 F 9 30-39 19:35 39:05 12:36/M
70 Jackie Kriebs West Branch IA 93 35 F 10 30-39 19:36 39:06 12:37/M
71 Cindy Braun West Branch IA 2 50 F 2 50-59 20:08 39:38 12:47/M
72 Breanna Braun West Branch IA 1 12 F 22 0-14 20:22 39:52 12:52/M
73 Heather Holtan Iowa city IA 111 38 F 11 30-39 20:36 40:06 12:56/M
74 Margaret Wick WB IA 36 65 F 2 60-99 21:20 40:50 13:10/M
75 Chyna Young West Branch IA 159 10 F 23 0-14 21:31 41:01 13:14/M
76 Joseph Heithoff West Branch IA 24 10 M 9 0-14 22:01 41:31 13:24/M
77 Laura Heithoff West Branch IA 23 39 F 12 30-39 22:11 41:41 13:27/M
78 Louise Wolf-Novak IC IA 106 54 F 3 50-59 22:49 42:19 13:39/M
79 Laken Hermiston Tipton IA 139 12 F 24 0-14 23:28 42:58 13:52/M
80 Katelynn Cook Mechanicsville IA 108 25 F 8 20-29 30:21 49:51 16:05/M
81 Mindy Otten Tipton IA 126 35 F 13 30-39 30:21 49:51 16:05/M
82 Bre Lewis West Branch IA 3 30 F 14 30-39 32:11 51:41 16:40/M
83 Kelli Connolly 45 29 F 9 20-29 34:58 54:28 17:34/M
84 Mandi Smith IC IA 43 29 F 10 20-29 35:00 54:30 17:35/M
85 Haliey Kochanny 167 13 F 25 0-14 35:10 54:40 17:38/M
86 Brianne Montgomery 163 29 F 11 20-29 35:14 54:44 17:39/M
87 Brenda Kochanny 166 43 F 6 40-49 35:14 54:44 17:39/M
 

Ten Kilometer

Place Name City Bib No Age Gender Age Group Time Back Total Time Pace
1 Rick Pahl 160 31 M 1 30-39   34:14 5:31/M
2 Taelor Bohnsach 142 24 M 1 20-29 2:36 36:51 5:57/M
3 Eric Walsh 157 42 M 1 40-49 3:36 37:51 6:06/M
4 Kevin Drake 143 47 M 2 40-49 4:35 38:50 6:16/M
5 Zach Hill Iowa City IA 165 28 M 2 20-29 6:45 41:00 6:37/M
6 Dustin Vasquez 155 43 M 3 40-49 7:54 42:09 6:48/M
7 David Cook 146 52 M 1 50-59 8:46 43:01 6:56/M
8 William Iverson Iowa City IA 120 46 M 4 40-49 8:55 43:10 6:58/M
9 Josh Berka Iowa City IA 148 33 M 2 30-39 9:56 44:11 7:08/M
10 Justin Christoffel West Branch IA 65 27 M 3 20-29 13:07 47:21 7:38/M
11 Rachel Morrison West Liberty IA 122 29 F 1 20-29 14:54 49:08 7:55/M
12 Scott Turner Coralville IA 123 40 M 5 40-49 15:43 49:58 8:04/M
13 Michelle Sexton West Branch IA 92 29 F 2 20-29 16:39 50:54 8:13/M
14 Dave Poppen WB IA 50 42 M 6 40-49 17:12 51:27 8:18/M
15 Trent Tisinger West Branch IA 149 34 M 3 30-39 17:32 51:47 8:21/M
16 Laura Suchomel Marion IA 17 34 F 1 30-39 18:14 52:29 8:28/M
17 Andy Mundell WB 116 40 M 7 40-49 18:34 52:49 8:31/M
18 Angie Maske-Berka Iowa City IA 147 34 F 2 30-39 19:36 53:51 8:41/M
19 Amber Schroeder Grand Mound IA 109 29 F 3 20-29 19:59 54:13 8:45/M
20 Tammy Holmes West Branch IA 11 41 F 1 40-49 20:16 54:31 8:48/M
21 Devin Lewis West Branch IA 4 28 M 4 20-29 21:19 55:34 8:58/M
22 Katie Iverson Iowa City IA 121 39 F 3 30-39 21:58 56:13 9:04/M
23 Karyn Moore Iowa City IA 7 26 F 4 20-29 23:30 57:45 9:19/M
24 Anthony Sotelo Atalissa 62 53 M 2 50-59 23:36 57:51 9:20/M
25 Jill Pierce Chaska MN 129 47 F 2 40-49 23:49 58:04 9:22/M
26 Katie White Iowa City IA 162 33 F 4 30-39 25:24 59:39 9:37/M
27 Josephine Lewis 151 33 F 5 30-39 25:24 59:39 9:37/M
28 Jessica Kusick WB 83 12 F 1 0-14 26:37 1:00:52 9:49/M
29 Sherri Peart Grinnell IA 124 33 F 6 30-39 27:11 1:01:26 9:55/M
30 Amanda Dyer North Liberty IA 10 33 F 7 30-39 27:19 1:01:34 9:56/M
31 Jessica Hudson West Branch IA 113 36 F 8 30-39 31:41 1:05:56 10:38/M
32 Cindy Kusick WB IA 84 47 F 3 40-49 31:46 1:06:01 10:39/M
33 Jennifer Sotelo Atalissa IA 61 50 F 1 50-59 32:04 1:06:19 10:42/M
34 Kris Frimml 156 62 F 1 60-99 33:56 1:08:11 11:00/M
35 Charles Potter Muscatine IA 68 65 M 1 60-99 38:56 1:13:11 11:48/M